sensor_id;sensor_type;location;lat;lon;timestamp;temperature;humidity
13682;DHT22;6913;49.892;7.936;2022-08-21T00:01:34;16.00;99.90
13682;DHT22;6913;49.892;7.936;2022-08-21T00:04:04;16.00;99.90
13682;DHT22;6913;49.892;7.936;2022-08-21T00:06:32;15.90;99.90
13682;DHT22;6913;49.892;7.936;2022-08-21T00:08:59;15.90;99.90
13682;DHT22;6913;49.892;7.936;2022-08-21T00:11:27;15.90;99.90
13682;DHT22;6913;49.892;7.936;2022-08-21T00:13:54;16.10;99.90
13682;DHT22;6913;49.892;7.936;2022-08-21T00:16:21;15.80;99.90
13682;DHT22;6913;49.892;7.936;2022-08-21T00:18:48;15.60;99.90
13682;DHT22;6913;49.892;7.936;2022-08-21T00:21:16;15.60;99.90
13682;DHT22;6913;49.892;7.936;2022-08-21T00:23:43;15.50;99.90
13682;DHT22;6913;49.892;7.936;2022-08-21T00:26:10;15.50;99.90
13682;DHT22;6913;49.892;7.936;2022-08-21T00:28:38;15.50;99.90
13682;DHT22;6913;49.892;7.936;2022-08-21T00:31:05;15.40;99.90
13682;DHT22;6913;49.892;7.936;2022-08-21T00:33:32;15.60;99.90
13682;DHT22;6913;49.892;7.936;2022-08-21T00:36:00;15.30;99.90
13682;DHT22;6913;49.892;7.936;2022-08-21T00:38:26;15.30;99.90
13682;DHT22;6913;49.892;7.936;2022-08-21T00:40:55;15.20;99.90
13682;DHT22;6913;49.892;7.936;2022-08-21T00:43:24;15.20;99.90
13682;DHT22;6913;49.892;7.936;2022-08-21T00:45:55;14.80;99.90
13682;DHT22;6913;49.892;7.936;2022-08-21T00:48:23;14.70;99.90
13682;DHT22;6913;49.892;7.936;2022-08-21T00:50:54;14.80;99.90
13682;DHT22;6913;49.892;7.936;2022-08-21T00:53:22;14.90;99.90
13682;DHT22;6913;49.892;7.936;2022-08-21T00:55:49;15.00;99.90
13682;DHT22;6913;49.892;7.936;2022-08-21T00:58:17;15.00;99.90
13682;DHT22;6913;49.892;7.936;2022-08-21T01:00:46;15.00;99.90
13682;DHT22;6913;49.892;7.936;2022-08-21T01:03:17;14.90;99.90
13682;DHT22;6913;49.892;7.936;2022-08-21T01:05:45;14.90;99.90
13682;DHT22;6913;49.892;7.936;2022-08-21T01:08:13;14.90;99.90
13682;DHT22;6913;49.892;7.936;2022-08-21T01:10:42;15.00;99.90
13682;DHT22;6913;49.892;7.936;2022-08-21T01:13:10;14.90;99.90
13682;DHT22;6913;49.892;7.936;2022-08-21T01:15:42;14.80;99.90
13682;DHT22;6913;49.892;7.936;2022-08-21T01:18:11;14.70;99.90
13682;DHT22;6913;49.892;7.936;2022-08-21T01:20:44;14.70;99.90
13682;DHT22;6913;49.892;7.936;2022-08-21T01:23:12;14.70;99.90
13682;DHT22;6913;49.892;7.936;2022-08-21T01:25:39;14.70;99.90
13682;DHT22;6913;49.892;7.936;2022-08-21T01:28:12;14.70;99.90
13682;DHT22;6913;49.892;7.936;2022-08-21T01:30:42;14.70;99.90
13682;DHT22;6913;49.892;7.936;2022-08-21T01:33:09;14.60;99.90
13682;DHT22;6913;49.892;7.936;2022-08-21T01:35:37;14.80;99.90
13682;DHT22;6913;49.892;7.936;2022-08-21T01:38:04;14.50;99.90
13682;DHT22;6913;49.892;7.936;2022-08-21T01:40:32;14.50;99.90
13682;DHT22;6913;49.892;7.936;2022-08-21T01:42:59;14.50;99.90
13682;DHT22;6913;49.892;7.936;2022-08-21T01:45:26;14.40;99.90
13682;DHT22;6913;49.892;7.936;2022-08-21T01:47:53;14.40;99.90
13682;DHT22;6913;49.892;7.936;2022-08-21T01:50:20;14.30;99.90
13682;DHT22;6913;49.892;7.936;2022-08-21T01:52:49;14.30;99.90
13682;DHT22;6913;49.892;7.936;2022-08-21T01:55:17;14.30;99.90
13682;DHT22;6913;49.892;7.936;2022-08-21T01:57:46;14.30;99.90
13682;DHT22;6913;49.892;7.936;2022-08-21T02:00:16;14.20;99.90
13682;DHT22;6913;49.892;7.936;2022-08-21T02:02:45;14.10;99.90
13682;DHT22;6913;49.892;7.936;2022-08-21T02:05:12;14.10;99.90
13682;DHT22;6913;49.892;7.936;2022-08-21T02:07:42;14.00;99.90
13682;DHT22;6913;49.892;7.936;2022-08-21T02:10:13;14.00;99.90
13682;DHT22;6913;49.892;7.936;2022-08-21T02:12:40;13.90;99.90
13682;DHT22;6913;49.892;7.936;2022-08-21T02:15:09;13.90;99.90
13682;DHT22;6913;49.892;7.936;2022-08-21T02:17:40;13.80;99.90
13682;DHT22;6913;49.892;7.936;2022-08-21T02:20:09;13.70;99.90
13682;DHT22;6913;49.892;7.936;2022-08-21T02:22:36;13.70;99.90
13682;DHT22;6913;49.892;7.936;2022-08-21T02:25:04;13.70;99.90
13682;DHT22;6913;49.892;7.936;2022-08-21T02:27:37;13.70;99.90
13682;DHT22;6913;49.892;7.936;2022-08-21T02:30:05;13.70;99.90
13682;DHT22;6913;49.892;7.936;2022-08-21T02:32:34;13.60;99.90
13682;DHT22;6913;49.892;7.936;2022-08-21T02:35:01;13.60;99.90
13682;DHT22;6913;49.892;7.936;2022-08-21T02:37:28;13.60;99.90
13682;DHT22;6913;49.892;7.936;2022-08-21T02:39:55;13.70;99.90
13682;DHT22;6913;49.892;7.936;2022-08-21T02:42:22;13.60;99.90
13682;DHT22;6913;49.892;7.936;2022-08-21T02:44:49;13.60;99.90
13682;DHT22;6913;49.892;7.936;2022-08-21T02:47:15;13.00;99.90
13682;DHT22;6913;49.892;7.936;2022-08-21T02:49:44;13.60;99.90
13682;DHT22;6913;49.892;7.936;2022-08-21T02:52:11;13.50;99.90
13682;DHT22;6913;49.892;7.936;2022-08-21T02:54:37;13.40;99.90
13682;DHT22;6913;49.892;7.936;2022-08-21T02:57:04;13.40;99.90
13682;DHT22;6913;49.892;7.936;2022-08-21T02:59:31;13.30;99.90
13682;DHT22;6913;49.892;7.936;2022-08-21T03:01:58;13.30;99.90
13682;DHT22;6913;49.892;7.936;2022-08-21T03:04:25;13.20;99.90
13682;DHT22;6913;49.892;7.936;2022-08-21T03:06:53;13.20;99.90
13682;DHT22;6913;49.892;7.936;2022-08-21T03:09:20;13.20;99.90
13682;DHT22;6913;49.892;7.936;2022-08-21T03:11:47;13.20;99.90
13682;DHT22;6913;49.892;7.936;2022-08-21T03:14:14;13.20;99.90
13682;DHT22;6913;49.892;7.936;2022-08-21T03:16:41;13.30;99.90
13682;DHT22;6913;49.892;7.936;2022-08-21T03:19:08;13.30;99.90
13682;DHT22;6913;49.892;7.936;2022-08-21T03:21:35;13.30;99.90
13682;DHT22;6913;49.892;7.936;2022-08-21T03:24:03;13.20;99.90
13682;DHT22;6913;49.892;7.936;2022-08-21T03:26:32;13.20;99.90
13682;DHT22;6913;49.892;7.936;2022-08-21T03:28:59;13.20;99.90
13682;DHT22;6913;49.892;7.936;2022-08-21T03:31:26;13.20;99.90
13682;DHT22;6913;49.892;7.936;2022-08-21T03:33:54;13.10;99.90
13682;DHT22;6913;49.892;7.936;2022-08-21T03:36:21;13.10;99.90
13682;DHT22;6913;49.892;7.936;2022-08-21T03:38:48;13.10;99.90
13682;DHT22;6913;49.892;7.936;2022-08-21T03:41:17;13.00;99.90
13682;DHT22;6913;49.892;7.936;2022-08-21T03:43:44;13.00;99.90
13682;DHT22;6913;49.892;7.936;2022-08-21T03:46:11;13.00;99.90
13682;DHT22;6913;49.892;7.936;2022-08-21T03:48:38;13.00;99.90
13682;DHT22;6913;49.892;7.936;2022-08-21T03:51:06;13.00;99.90
13682;DHT22;6913;49.892;7.936;2022-08-21T03:53:33;13.00;99.90
13682;DHT22;6913;49.892;7.936;2022-08-21T03:56:00;13.00;99.90
13682;DHT22;6913;49.892;7.936;2022-08-21T03:58:29;12.90;99.90
13682;DHT22;6913;49.892;7.936;2022-08-21T04:00:58;12.90;99.90
13682;DHT22;6913;49.892;7.936;2022-08-21T04:03:26;12.80;99.90
13682;DHT22;6913;49.892;7.936;2022-08-21T04:05:53;12.80;99.90
13682;DHT22;6913;49.892;7.936;2022-08-21T04:08:20;12.80;99.90
13682;DHT22;6913;49.892;7.936;2022-08-21T04:10:50;12.80;99.90
13682;DHT22;6913;49.892;7.936;2022-08-21T04:13:19;12.80;99.90
13682;DHT22;6913;49.892;7.936;2022-08-21T04:15:48;12.70;99.90
13682;DHT22;6913;49.892;7.936;2022-08-21T04:18:15;12.70;99.90
13682;DHT22;6913;49.892;7.936;2022-08-21T04:20:43;12.70;99.90
13682;DHT22;6913;49.892;7.936;2022-08-21T04:23:11;12.80;99.90
13682;DHT22;6913;49.892;7.936;2022-08-21T04:25:38;12.60;99.90
13682;DHT22;6913;49.892;7.936;2022-08-21T04:28:05;12.70;99.90
13682;DHT22;6913;49.892;7.936;2022-08-21T04:30:32;12.60;99.90
13682;DHT22;6913;49.892;7.936;2022-08-21T04:33:00;12.60;99.90
13682;DHT22;6913;49.892;7.936;2022-08-21T04:35:28;12.60;99.90
13682;DHT22;6913;49.892;7.936;2022-08-21T04:37:55;12.60;99.90
13682;DHT22;6913;49.892;7.936;2022-08-21T04:40:25;12.60;99.90
13682;DHT22;6913;49.892;7.936;2022-08-21T04:42:54;12.60;99.90
13682;DHT22;6913;49.892;7.936;2022-08-21T04:45:24;12.60;99.90
13682;DHT22;6913;49.892;7.936;2022-08-21T04:47:52;12.60;99.90
13682;DHT22;6913;49.892;7.936;2022-08-21T04:50:22;12.60;99.90
13682;DHT22;6913;49.892;7.936;2022-08-21T04:52:51;12.60;99.90
13682;DHT22;6913;49.892;7.936;2022-08-21T04:55:19;12.70;99.90
13682;DHT22;6913;49.892;7.936;2022-08-21T04:57:47;12.70;99.90
13682;DHT22;6913;49.892;7.936;2022-08-21T05:00:19;12.70;99.90
13682;DHT22;6913;49.892;7.936;2022-08-21T05:02:46;12.70;99.90
13682;DHT22;6913;49.892;7.936;2022-08-21T05:05:14;12.80;99.90
13682;DHT22;6913;49.892;7.936;2022-08-21T05:07:44;12.90;99.90
13682;DHT22;6913;49.892;7.936;2022-08-21T05:10:13;13.10;99.90
13682;DHT22;6913;49.892;7.936;2022-08-21T05:12:41;13.40;99.90
13682;DHT22;6913;49.892;7.936;2022-08-21T05:15:09;13.80;99.90
13682;DHT22;6913;49.892;7.936;2022-08-21T05:17:37;14.20;99.90
13682;DHT22;6913;49.892;7.936;2022-08-21T05:20:05;14.60;99.90
13682;DHT22;6913;49.892;7.936;2022-08-21T05:22:32;15.00;99.90
13682;DHT22;6913;49.892;7.936;2022-08-21T05:25:00;15.20;99.90
13682;DHT22;6913;49.892;7.936;2022-08-21T05:27:27;15.50;99.90
13682;DHT22;6913;49.892;7.936;2022-08-21T05:29:55;15.90;99.90
13682;DHT22;6913;49.892;7.936;2022-08-21T05:32:22;16.30;99.90
13682;DHT22;6913;49.892;7.936;2022-08-21T05:34:50;16.60;99.90
13682;DHT22;6913;49.892;7.936;2022-08-21T05:37:17;16.80;99.90
13682;DHT22;6913;49.892;7.936;2022-08-21T05:39:44;17.00;99.90
13682;DHT22;6913;49.892;7.936;2022-08-21T05:42:12;17.40;99.90
13682;DHT22;6913;49.892;7.936;2022-08-21T05:44:39;17.60;99.90
13682;DHT22;6913;49.892;7.936;2022-08-21T05:47:08;17.90;99.90
13682;DHT22;6913;49.892;7.936;2022-08-21T05:49:36;17.90;99.90
13682;DHT22;6913;49.892;7.936;2022-08-21T05:52:03;18.10;99.90
13682;DHT22;6913;49.892;7.936;2022-08-21T05:54:30;18.50;99.90
13682;DHT22;6913;49.892;7.936;2022-08-21T05:56:57;18.10;99.90
13682;DHT22;6913;49.892;7.936;2022-08-21T05:59:26;18.50;99.90
13682;DHT22;6913;49.892;7.936;2022-08-21T06:01:53;19.00;99.90
13682;DHT22;6913;49.892;7.936;2022-08-21T06:04:20;18.90;99.90
13682;DHT22;6913;49.892;7.936;2022-08-21T06:06:47;18.30;99.90
13682;DHT22;6913;49.892;7.936;2022-08-21T06:09:14;18.10;99.90
13682;DHT22;6913;49.892;7.936;2022-08-21T06:11:41;19.00;99.90
13682;DHT22;6913;49.892;7.936;2022-08-21T06:14:08;19.00;99.90
13682;DHT22;6913;49.892;7.936;2022-08-21T06:16:36;19.40;99.90
13682;DHT22;6913;49.892;7.936;2022-08-21T06:19:03;20.00;99.90
13682;DHT22;6913;49.892;7.936;2022-08-21T06:21:30;20.70;99.90
13682;DHT22;6913;49.892;7.936;2022-08-21T06:23:57;21.40;99.90
13682;DHT22;6913;49.892;7.936;2022-08-21T06:26:23;21.10;99.90
13682;DHT22;6913;49.892;7.936;2022-08-21T06:28:50;21.70;99.90
13682;DHT22;6913;49.892;7.936;2022-08-21T06:31:19;21.80;99.90
13682;DHT22;6913;49.892;7.936;2022-08-21T06:33:48;22.00;99.90
13682;DHT22;6913;49.892;7.936;2022-08-21T06:36:18;22.70;99.90
13682;DHT22;6913;49.892;7.936;2022-08-21T06:38:46;22.50;99.90
13682;DHT22;6913;49.892;7.936;2022-08-21T06:41:13;22.90;99.90
13682;DHT22;6913;49.892;7.936;2022-08-21T06:43:40;23.30;99.90
13682;DHT22;6913;49.892;7.936;2022-08-21T06:46:07;23.20;99.90
13682;DHT22;6913;49.892;7.936;2022-08-21T06:48:34;22.30;99.90
13682;DHT22;6913;49.892;7.936;2022-08-21T06:51:03;23.40;99.90
13682;DHT22;6913;49.892;7.936;2022-08-21T06:53:30;24.00;99.90
13682;DHT22;6913;49.892;7.936;2022-08-21T06:55:57;24.50;99.90
13682;DHT22;6913;49.892;7.936;2022-08-21T06:58:24;25.10;99.90
13682;DHT22;6913;49.892;7.936;2022-08-21T07:00:51;25.60;99.90
13682;DHT22;6913;49.892;7.936;2022-08-21T07:03:23;26.30;99.90
13682;DHT22;6913;49.892;7.936;2022-08-21T07:05:51;26.40;99.90
13682;DHT22;6913;49.892;7.936;2022-08-21T07:08:20;26.20;99.90
13682;DHT22;6913;49.892;7.936;2022-08-21T07:10:47;25.70;99.90
13682;DHT22;6913;49.892;7.936;2022-08-21T07:13:15;25.90;99.90
13682;DHT22;6913;49.892;7.936;2022-08-21T07:15:42;26.30;99.90
13682;DHT22;6913;49.892;7.936;2022-08-21T07:18:10;26.70;99.80
13682;DHT22;6913;49.892;7.936;2022-08-21T07:20:39;27.00;99.20
13682;DHT22;6913;49.892;7.936;2022-08-21T07:23:08;27.40;98.70
13682;DHT22;6913;49.892;7.936;2022-08-21T07:25:37;27.40;99.10
13682;DHT22;6913;49.892;7.936;2022-08-21T07:28:04;27.60;98.60
13682;DHT22;6913;49.892;7.936;2022-08-21T07:30:31;27.80;97.80
13682;DHT22;6913;49.892;7.936;2022-08-21T07:32:58;27.80;98.10
13682;DHT22;6913;49.892;7.936;2022-08-21T07:35:26;28.00;97.20
13682;DHT22;6913;49.892;7.936;2022-08-21T07:37:53;28.10;96.90
13682;DHT22;6913;49.892;7.936;2022-08-21T07:40:20;28.00;97.60
13682;DHT22;6913;49.892;7.936;2022-08-21T07:42:49;28.20;96.90
13682;DHT22;6913;49.892;7.936;2022-08-21T07:45:18;28.60;95.90
13682;DHT22;6913;49.892;7.936;2022-08-21T07:47:46;28.10;96.20
13682;DHT22;6913;49.892;7.936;2022-08-21T07:50:14;27.70;96.60
13682;DHT22;6913;49.892;7.936;2022-08-21T07:52:42;27.30;96.60
13682;DHT22;6913;49.892;7.936;2022-08-21T07:55:11;26.70;97.50
13682;DHT22;6913;49.892;7.936;2022-08-21T07:57:38;27.00;96.90
13682;DHT22;6913;49.892;7.936;2022-08-21T08:00:10;26.10;99.00
13682;DHT22;6913;49.892;7.936;2022-08-21T08:02:37;27.10;97.70
13682;DHT22;6913;49.892;7.936;2022-08-21T08:05:07;28.20;97.10
13682;DHT22;6913;49.892;7.936;2022-08-21T08:07:34;29.30;95.10
13682;DHT22;6913;49.892;7.936;2022-08-21T08:10:02;29.40;95.30
13682;DHT22;6913;49.892;7.936;2022-08-21T08:12:30;29.40;94.70
13682;DHT22;6913;49.892;7.936;2022-08-21T08:14:58;29.80;93.80
13682;DHT22;6913;49.892;7.936;2022-08-21T08:17:28;30.30;92.90
13682;DHT22;6913;49.892;7.936;2022-08-21T08:19:55;30.20;93.30
13682;DHT22;6913;49.892;7.936;2022-08-21T08:22:23;29.20;92.70
13682;DHT22;6913;49.892;7.936;2022-08-21T08:24:51;28.60;93.40
13682;DHT22;6913;49.892;7.936;2022-08-21T08:27:18;28.00;95.10
13682;DHT22;6913;49.892;7.936;2022-08-21T08:29:46;28.10;94.50
13682;DHT22;6913;49.892;7.936;2022-08-21T08:32:14;29.00;94.30
13682;DHT22;6913;49.892;7.936;2022-08-21T08:34:42;29.90;93.00
13682;DHT22;6913;49.892;7.936;2022-08-21T08:37:10;30.10;92.80
13682;DHT22;6913;49.892;7.936;2022-08-21T08:39:37;30.70;92.20
13682;DHT22;6913;49.892;7.936;2022-08-21T08:42:07;30.80;92.30
13682;DHT22;6913;49.892;7.936;2022-08-21T08:44:35;31.70;91.00
13682;DHT22;6913;49.892;7.936;2022-08-21T08:47:03;32.10;89.90
13682;DHT22;6913;49.892;7.936;2022-08-21T08:49:37;31.40;90.20
13682;DHT22;6913;49.892;7.936;2022-08-21T08:52:18;30.20;90.90
13682;DHT22;6913;49.892;7.936;2022-08-21T08:54:51;29.00;91.50
13682;DHT22;6913;49.892;7.936;2022-08-21T08:57:24;28.40;92.10
13682;DHT22;6913;49.892;7.936;2022-08-21T08:59:55;27.80;93.90
13682;DHT22;6913;49.892;7.936;2022-08-21T09:02:23;29.30;92.50
13682;DHT22;6913;49.892;7.936;2022-08-21T09:04:51;30.20;90.30
13682;DHT22;6913;49.892;7.936;2022-08-21T09:07:28;30.90;88.40
13682;DHT22;6913;49.892;7.936;2022-08-21T09:10:10;31.20;88.20
13682;DHT22;6913;49.892;7.936;2022-08-21T09:12:48;31.50;85.40
13682;DHT22;6913;49.892;7.936;2022-08-21T09:15:24;31.30;85.70
13682;DHT22;6913;49.892;7.936;2022-08-21T09:18:13;30.90;84.80
13682;DHT22;6913;49.892;7.936;2022-08-21T09:20:51;31.20;82.50
13682;DHT22;6913;49.892;7.936;2022-08-21T09:23:28;30.90;86.00
13682;DHT22;6913;49.892;7.936;2022-08-21T09:26:05;31.90;83.60
13682;DHT22;6913;49.892;7.936;2022-08-21T09:28:34;29.90;83.50
13682;DHT22;6913;49.892;7.936;2022-08-21T09:31:05;29.20;87.50
13682;DHT22;6913;49.892;7.936;2022-08-21T09:33:32;30.00;85.50
13682;DHT22;6913;49.892;7.936;2022-08-21T09:35:59;30.70;85.40
13682;DHT22;6913;49.892;7.936;2022-08-21T09:38:32;31.50;84.10
13682;DHT22;6913;49.892;7.936;2022-08-21T09:41:02;31.40;81.80
13682;DHT22;6913;49.892;7.936;2022-08-21T09:43:30;28.80;88.00
13682;DHT22;6913;49.892;7.936;2022-08-21T09:46:09;29.80;84.90
13682;DHT22;6913;49.892;7.936;2022-08-21T09:48:43;29.00;85.90
13682;DHT22;6913;49.892;7.936;2022-08-21T09:51:12;29.50;85.70
13682;DHT22;6913;49.892;7.936;2022-08-21T09:53:44;29.60;85.50
13682;DHT22;6913;49.892;7.936;2022-08-21T09:56:20;29.40;84.20
13682;DHT22;6913;49.892;7.936;2022-08-21T09:59:18;29.90;86.40
13682;DHT22;6913;49.892;7.936;2022-08-21T10:01:47;29.70;83.20
13682;DHT22;6913;49.892;7.936;2022-08-21T10:04:14;28.50;86.90
13682;DHT22;6913;49.892;7.936;2022-08-21T10:06:45;30.10;86.00
13682;DHT22;6913;49.892;7.936;2022-08-21T10:09:15;30.30;84.30
13682;DHT22;6913;49.892;7.936;2022-08-21T10:11:48;30.60;84.20
13682;DHT22;6913;49.892;7.936;2022-08-21T10:14:30;31.20;82.50
13682;DHT22;6913;49.892;7.936;2022-08-21T10:17:05;31.60;82.40
13682;DHT22;6913;49.892;7.936;2022-08-21T10:19:40;30.20;84.30
13682;DHT22;6913;49.892;7.936;2022-08-21T10:22:19;29.40;82.40
13682;DHT22;6913;49.892;7.936;2022-08-21T10:24:58;28.20;85.30
13682;DHT22;6913;49.892;7.936;2022-08-21T10:27:33;29.10;86.80
13682;DHT22;6913;49.892;7.936;2022-08-21T10:30:06;30.40;83.40
13682;DHT22;6913;49.892;7.936;2022-08-21T10:32:52;30.30;83.50
13682;DHT22;6913;49.892;7.936;2022-08-21T10:35:24;29.80;82.10
13682;DHT22;6913;49.892;7.936;2022-08-21T10:41:47;31.40;81.80
13682;DHT22;6913;49.892;7.936;2022-08-21T10:44:25;32.50;78.20
13682;DHT22;6913;49.892;7.936;2022-08-21T10:47:00;33.20;76.40
13682;DHT22;6913;49.892;7.936;2022-08-21T10:49:35;33.20;76.20
13682;DHT22;6913;49.892;7.936;2022-08-21T10:52:27;33.40;75.00
13682;DHT22;6913;49.892;7.936;2022-08-21T10:55:00;32.90;74.30
13682;DHT22;6913;49.892;7.936;2022-08-21T10:57:36;33.40;74.20
13682;DHT22;6913;49.892;7.936;2022-08-21T11:00:08;33.60;74.00
13682;DHT22;6913;49.892;7.936;2022-08-21T11:02:40;33.40;72.60
13682;DHT22;6913;49.892;7.936;2022-08-21T11:05:12;32.90;72.20
13682;DHT22;6913;49.892;7.936;2022-08-21T11:07:45;32.00;73.70
13682;DHT22;6913;49.892;7.936;2022-08-21T11:10:18;32.20;72.80
13682;DHT22;6913;49.892;7.936;2022-08-21T11:12:52;31.80;71.70
13682;DHT22;6913;49.892;7.936;2022-08-21T11:15:31;31.10;74.00
13682;DHT22;6913;49.892;7.936;2022-08-21T11:18:10;31.30;74.20
13682;DHT22;6913;49.892;7.936;2022-08-21T11:20:43;29.90;74.00
13682;DHT22;6913;49.892;7.936;2022-08-21T11:23:18;28.90;76.00
13682;DHT22;6913;49.892;7.936;2022-08-21T11:25:50;27.60;78.70
13682;DHT22;6913;49.892;7.936;2022-08-21T11:28:24;27.70;81.10
13682;DHT22;6913;49.892;7.936;2022-08-21T11:31:05;28.30;79.10
13682;DHT22;6913;49.892;7.936;2022-08-21T11:33:48;28.20;78.80
13682;DHT22;6913;49.892;7.936;2022-08-21T11:36:23;27.70;79.00
13682;DHT22;6913;49.892;7.936;2022-08-21T11:38:57;28.00;80.70
13682;DHT22;6913;49.892;7.936;2022-08-21T11:41:29;29.10;79.70
13682;DHT22;6913;49.892;7.936;2022-08-21T11:44:04;30.20;74.80
13682;DHT22;6913;49.892;7.936;2022-08-21T11:46:39;30.90;74.70
13682;DHT22;6913;49.892;7.936;2022-08-21T11:52:19;30.50;73.80
13682;DHT22;6913;49.892;7.936;2022-08-21T11:54:52;31.00;74.10
13682;DHT22;6913;49.892;7.936;2022-08-21T11:57:25;31.90;72.20
13682;DHT22;6913;49.892;7.936;2022-08-21T12:00:02;32.10;70.90
13682;DHT22;6913;49.892;7.936;2022-08-21T12:02:34;32.60;70.00
13682;DHT22;6913;49.892;7.936;2022-08-21T12:05:04;30.80;69.80
13682;DHT22;6913;49.892;7.936;2022-08-21T12:07:34;30.30;72.00
13682;DHT22;6913;49.892;7.936;2022-08-21T12:10:06;30.30;72.00
13682;DHT22;6913;49.892;7.936;2022-08-21T12:12:34;31.20;71.00
13682;DHT22;6913;49.892;7.936;2022-08-21T12:15:23;31.50;68.90
13682;DHT22;6913;49.892;7.936;2022-08-21T12:17:54;30.30;69.30
13682;DHT22;6913;49.892;7.936;2022-08-21T12:20:38;29.30;72.10
13682;DHT22;6913;49.892;7.936;2022-08-21T12:23:23;28.40;73.20
13682;DHT22;6913;49.892;7.936;2022-08-21T12:26:01;28.30;74.30
13682;DHT22;6913;49.892;7.936;2022-08-21T12:28:29;29.40;71.10
13682;DHT22;6913;49.892;7.936;2022-08-21T12:30:58;29.80;72.80
13682;DHT22;6913;49.892;7.936;2022-08-21T12:33:27;30.30;72.00
13682;DHT22;6913;49.892;7.936;2022-08-21T12:36:03;30.30;70.70
13682;DHT22;6913;49.892;7.936;2022-08-21T12:38:45;30.10;69.70
13682;DHT22;6913;49.892;7.936;2022-08-21T12:41:18;30.50;69.30
13682;DHT22;6913;49.892;7.936;2022-08-21T12:43:48;30.50;68.60
13682;DHT22;6913;49.892;7.936;2022-08-21T12:46:29;29.70;69.10
13682;DHT22;6913;49.892;7.936;2022-08-21T12:49:00;29.90;70.10
13682;DHT22;6913;49.892;7.936;2022-08-21T12:51:32;30.20;69.10
13682;DHT22;6913;49.892;7.936;2022-08-21T12:54:01;30.80;68.10
13682;DHT22;6913;49.892;7.936;2022-08-21T12:56:31;31.20;66.90
13682;DHT22;6913;49.892;7.936;2022-08-21T12:59:01;31.10;66.40
13682;DHT22;6913;49.892;7.936;2022-08-21T13:01:34;31.10;67.70
13682;DHT22;6913;49.892;7.936;2022-08-21T13:04:03;31.20;64.80
13682;DHT22;6913;49.892;7.936;2022-08-21T13:06:36;31.70;65.50
13682;DHT22;6913;49.892;7.936;2022-08-21T13:09:06;32.20;63.90
13682;DHT22;6913;49.892;7.936;2022-08-21T13:11:34;32.50;62.50
13682;DHT22;6913;49.892;7.936;2022-08-21T13:14:04;32.70;62.00
13682;DHT22;6913;49.892;7.936;2022-08-21T13:16:32;32.60;61.10
13682;DHT22;6913;49.892;7.936;2022-08-21T13:19:02;32.50;61.20
13682;DHT22;6913;49.892;7.936;2022-08-21T13:21:33;32.30;61.30
13682;DHT22;6913;49.892;7.936;2022-08-21T13:24:10;32.60;60.50
13682;DHT22;6913;49.892;7.936;2022-08-21T13:26:39;32.10;60.10
13682;DHT22;6913;49.892;7.936;2022-08-21T13:29:07;31.90;60.30
13682;DHT22;6913;49.892;7.936;2022-08-21T13:31:39;32.10;60.40
13682;DHT22;6913;49.892;7.936;2022-08-21T13:34:09;32.40;59.50
13682;DHT22;6913;49.892;7.936;2022-08-21T13:36:39;32.50;59.20
13682;DHT22;6913;49.892;7.936;2022-08-21T13:39:09;32.70;59.30
13682;DHT22;6913;49.892;7.936;2022-08-21T13:41:39;32.70;58.70
13682;DHT22;6913;49.892;7.936;2022-08-21T13:44:16;32.80;58.40
13682;DHT22;6913;49.892;7.936;2022-08-21T13:46:45;32.80;58.10
13682;DHT22;6913;49.892;7.936;2022-08-21T13:49:15;32.70;58.40
13682;DHT22;6913;49.892;7.936;2022-08-21T13:51:43;32.50;57.60
13682;DHT22;6913;49.892;7.936;2022-08-21T13:54:20;32.80;57.70
13682;DHT22;6913;49.892;7.936;2022-08-21T13:56:48;32.00;57.50
13682;DHT22;6913;49.892;7.936;2022-08-21T13:59:25;31.70;56.80
13682;DHT22;6913;49.892;7.936;2022-08-21T14:01:55;31.80;57.00
13682;DHT22;6913;49.892;7.936;2022-08-21T14:04:30;31.80;57.60
13682;DHT22;6913;49.892;7.936;2022-08-21T14:07:00;32.00;57.40
13682;DHT22;6913;49.892;7.936;2022-08-21T14:09:32;32.50;57.50
13682;DHT22;6913;49.892;7.936;2022-08-21T14:12:12;32.40;57.50
13682;DHT22;6913;49.892;7.936;2022-08-21T14:14:40;32.40;57.40
13682;DHT22;6913;49.892;7.936;2022-08-21T14:17:12;32.90;56.40
13682;DHT22;6913;49.892;7.936;2022-08-21T14:19:42;32.80;56.00
13682;DHT22;6913;49.892;7.936;2022-08-21T14:22:27;32.90;55.80
13682;DHT22;6913;49.892;7.936;2022-08-21T14:24:59;33.10;55.40
13682;DHT22;6913;49.892;7.936;2022-08-21T14:27:29;33.10;54.90
13682;DHT22;6913;49.892;7.936;2022-08-21T14:30:01;32.60;54.20
13682;DHT22;6913;49.892;7.936;2022-08-21T14:32:38;32.20;56.30
13682;DHT22;6913;49.892;7.936;2022-08-21T14:35:06;32.10;54.70
13682;DHT22;6913;49.892;7.936;2022-08-21T14:37:34;32.50;55.80
13682;DHT22;6913;49.892;7.936;2022-08-21T14:40:01;32.60;55.50
13682;DHT22;6913;49.892;7.936;2022-08-21T14:42:28;32.50;54.70
13682;DHT22;6913;49.892;7.936;2022-08-21T14:45:00;32.50;54.40
13682;DHT22;6913;49.892;7.936;2022-08-21T14:47:27;32.50;54.50
13682;DHT22;6913;49.892;7.936;2022-08-21T14:49:56;32.30;54.80
13682;DHT22;6913;49.892;7.936;2022-08-21T14:52:23;32.20;54.30
13682;DHT22;6913;49.892;7.936;2022-08-21T14:54:50;32.20;53.70
13682;DHT22;6913;49.892;7.936;2022-08-21T14:57:17;32.60;54.10
13682;DHT22;6913;49.892;7.936;2022-08-21T14:59:44;32.90;53.40
13682;DHT22;6913;49.892;7.936;2022-08-21T15:02:12;33.00;53.30
13682;DHT22;6913;49.892;7.936;2022-08-21T15:04:39;32.40;54.20
13682;DHT22;6913;49.892;7.936;2022-08-21T15:07:08;32.30;53.30
13682;DHT22;6913;49.892;7.936;2022-08-21T15:09:35;32.30;53.10
13682;DHT22;6913;49.892;7.936;2022-08-21T15:12:03;32.60;53.10
13682;DHT22;6913;49.892;7.936;2022-08-21T15:14:33;32.80;52.20
13682;DHT22;6913;49.892;7.936;2022-08-21T15:17:01;32.90;52.20
13682;DHT22;6913;49.892;7.936;2022-08-21T15:19:29;32.80;53.40
13682;DHT22;6913;49.892;7.936;2022-08-21T15:21:56;32.10;53.30
13682;DHT22;6913;49.892;7.936;2022-08-21T15:24:25;32.40;53.60
13682;DHT22;6913;49.892;7.936;2022-08-21T15:26:52;32.60;52.60
13682;DHT22;6913;49.892;7.936;2022-08-21T15:29:20;31.60;52.30
13682;DHT22;6913;49.892;7.936;2022-08-21T15:31:53;31.50;53.40
13682;DHT22;6913;49.892;7.936;2022-08-21T15:34:20;31.80;53.10
13682;DHT22;6913;49.892;7.936;2022-08-21T15:36:47;31.40;53.00
13682;DHT22;6913;49.892;7.936;2022-08-21T15:39:14;31.50;54.00
13682;DHT22;6913;49.892;7.936;2022-08-21T15:41:43;32.00;53.50
13682;DHT22;6913;49.892;7.936;2022-08-21T15:44:11;31.40;53.30
13682;DHT22;6913;49.892;7.936;2022-08-21T15:46:39;31.40;53.90
13682;DHT22;6913;49.892;7.936;2022-08-21T15:49:07;31.80;53.50
13682;DHT22;6913;49.892;7.936;2022-08-21T15:51:34;31.40;52.70
13682;DHT22;6913;49.892;7.936;2022-08-21T15:54:01;31.30;53.20
13682;DHT22;6913;49.892;7.936;2022-08-21T15:56:33;30.30;53.60
13682;DHT22;6913;49.892;7.936;2022-08-21T15:59:04;29.50;55.10
13682;DHT22;6913;49.892;7.936;2022-08-21T16:01:32;29.50;54.80
13682;DHT22;6913;49.892;7.936;2022-08-21T16:04:00;29.70;54.30
13682;DHT22;6913;49.892;7.936;2022-08-21T16:06:28;29.80;55.40
13682;DHT22;6913;49.892;7.936;2022-08-21T16:08:55;30.30;55.10